Bratislava, Slovakia
Current Conditions -  °F | °C
As of 10:30 PM on Thursday 29 Jan 2015 (Local Time) from LZIB Reporting Station
Haze Haze  
Wind Chill: -6°   Ceiling: 300
Heat Index: -1°   Visibility: 1.5mi
Dew Point: -2°   Wind: 10mph
Humidity: 93%   Direction: 110°ESE
Pressure: 29.32"   Gusts: NA
Location:  48.16°N, 17.13°E
Report Text: LZIB 292030Z 11009KT 2400 BR BKN003 M01/M02 Q0993 R13/2///95
Loading
Personal Weather Stations






























Interactive Weather Map New forecast layout! Learn more

10-Day Weather Forecast

Advertisements
Track Severe Weather on mobile